createdAt,value
2023-04-16T08:45:09.688Z,995.96
2023-04-16T12:03:05.063Z,997.20
2023-04-16T12:09:49.989Z,997.25
2023-04-16T12:41:20.882Z,997.18
2023-04-16T12:55:21.132Z,997.29
2023-04-16T12:55:23.082Z,997.29
2023-04-16T12:56:22.953Z,997.28
2023-04-16T12:57:22.903Z,997.26
2023-04-16T12:58:23.131Z,997.21
2023-04-16T12:59:22.850Z,997.21
2023-04-16T13:00:22.822Z,997.20
2023-04-16T13:01:23.360Z,997.18
2023-04-16T13:02:23.148Z,997.21
2023-04-16T13:03:22.858Z,997.25
2023-04-16T13:04:25.505Z,997.22
2023-04-16T13:05:23.682Z,997.24
2023-04-16T13:06:23.034Z,997.22
2023-04-16T13:07:22.698Z,997.23
2023-04-16T13:08:22.763Z,997.20
2023-04-16T13:09:22.802Z,997.16
2023-04-16T13:10:22.818Z,997.19
2023-04-16T13:11:22.760Z,997.31
2023-04-16T13:12:22.724Z,997.23
2023-04-16T13:13:22.710Z,997.33
2023-04-16T13:15:46.743Z,997.29
2023-04-16T13:15:48.709Z,997.30
2023-04-16T13:16:51.730Z,997.26
2023-04-16T13:17:50.694Z,997.21
2023-04-16T13:18:53.306Z,997.29
2023-04-16T13:19:48.578Z,997.21
2023-04-16T13:20:51.610Z,997.21
2023-04-16T13:21:56.123Z,997.31
2023-04-16T13:22:54.464Z,997.29
2023-04-16T13:23:53.692Z,997.30
2023-04-16T13:24:54.210Z,997.30
2023-04-16T13:25:50.734Z,997.24
2023-04-16T13:26:58.618Z,997.28
2023-04-16T13:28:09.479Z,997.26
2023-04-16T13:28:52.670Z,997.28
2023-04-16T13:29:55.360Z,997.23
2023-04-16T13:30:52.747Z,997.28
2023-04-16T13:33:12.772Z,997.31
2023-04-16T13:33:19.602Z,997.25
2023-04-16T13:37:11.974Z,997.30
2023-04-16T13:38:11.591Z,997.33
2023-04-16T13:39:08.908Z,997.32
2023-04-16T13:41:29.446Z,997.33
2023-04-16T13:41:43.970Z,997.32
2023-04-16T13:42:37.919Z,997.28
2023-04-16T13:43:45.399Z,997.31
2023-04-16T13:45:14.404Z,997.32
2023-04-16T13:45:33.861Z,997.32
2023-04-16T13:49:19.724Z,997.30
2023-04-16T13:50:16.041Z,997.36
2023-04-16T13:51:47.906Z,997.27
2023-04-16T13:58:23.855Z,997.31
2023-04-16T13:59:52.236Z,997.31
2023-04-16T14:01:16.140Z,997.33
2023-04-16T14:04:16.450Z,997.43
2023-04-16T14:04:27.847Z,997.42
2023-04-16T14:06:41.864Z,997.38
2023-04-16T14:06:44.486Z,997.40
2023-04-16T14:07:56.637Z,997.40
2023-04-16T14:08:55.477Z,997.44
2023-04-16T14:10:06.386Z,997.40
2023-04-16T14:26:15.325Z,997.60
2023-04-16T14:26:49.546Z,997.54
2023-04-16T14:27:49.483Z,997.54
2023-04-16T14:28:49.476Z,997.59
2023-04-16T14:29:49.502Z,997.56
2023-04-16T14:30:49.521Z,997.51
2023-04-16T14:31:49.567Z,997.54
2023-04-16T14:32:50.277Z,997.58
2023-04-16T14:33:49.410Z,997.63
2023-04-16T14:34:49.415Z,997.59
2023-04-16T14:35:49.440Z,997.58
2023-04-16T14:36:49.457Z,997.53
2023-04-16T14:37:49.401Z,997.55
2023-04-16T14:38:49.395Z,997.59
2023-04-16T14:39:49.438Z,997.54
2023-04-16T14:40:49.376Z,997.62
2023-04-16T14:41:49.387Z,997.60
2023-04-16T14:42:49.368Z,997.63
2023-04-16T14:43:49.350Z,997.59
2023-04-16T14:44:49.397Z,997.61
2023-04-16T14:45:49.292Z,997.60
2023-04-16T14:46:49.314Z,997.63
2023-04-16T14:47:49.822Z,997.64
2023-04-16T14:48:49.304Z,997.63
2023-04-16T14:49:49.193Z,997.70
2023-04-16T14:50:49.267Z,997.67
2023-04-16T14:51:49.210Z,997.66
2023-04-16T14:52:49.283Z,997.73
2023-04-16T14:53:49.228Z,997.70
2023-04-16T14:54:49.308Z,997.66
2023-04-16T14:55:49.224Z,997.69
2023-04-16T14:56:49.413Z,997.73
2023-04-16T14:57:49.174Z,997.75
2023-04-16T14:58:49.176Z,997.73
2023-04-16T14:59:49.159Z,997.75
2023-04-16T15:00:49.146Z,997.79
2023-04-16T15:01:49.265Z,997.74
2023-04-16T15:02:49.224Z,997.78
2023-04-16T15:03:49.697Z,997.83
2023-04-16T15:04:49.091Z,997.73
2023-04-16T15:05:49.082Z,997.80
2023-04-16T15:06:49.858Z,997.72
2023-04-16T15:07:49.130Z,997.74
2023-04-16T15:08:49.126Z,997.83
2023-04-16T15:09:49.065Z,997.81
2023-04-16T15:10:49.072Z,997.84
2023-04-16T15:11:49.037Z,997.82
2023-04-16T15:12:49.029Z,997.81
2023-04-16T15:13:49.062Z,997.75
2023-04-16T15:14:49.039Z,997.76
2023-04-16T15:15:49.050Z,997.73
2023-04-16T15:16:49.070Z,997.79
2023-04-16T15:17:48.992Z,997.77
2023-04-16T15:18:49.877Z,997.77
2023-04-16T15:19:48.970Z,997.80
2023-04-16T15:20:48.879Z,997.80
2023-04-16T15:21:49.440Z,997.75
2023-04-16T15:22:49.773Z,997.81
2023-04-16T15:29:41.279Z,997.88
2023-04-16T15:45:29.603Z,998.02
